createdAt,value
2023-01-29T00:10:50.485Z,3.53
2023-01-29T00:30:50.496Z,3.53
2023-01-29T00:50:50.496Z,3.52
2023-01-29T01:10:50.372Z,3.51
2023-01-29T01:30:49.775Z,3.5
2023-01-29T01:50:50.547Z,3.48
2023-01-29T02:10:50.519Z,3.46
2023-01-29T02:30:50.627Z,3.45
2023-01-29T02:50:50.008Z,3.44
2023-01-29T03:10:50.558Z,3.43
2023-01-29T03:30:50.048Z,3.42
2023-01-29T03:50:50.574Z,3.42
2023-01-29T04:10:50.556Z,3.41
2023-01-29T04:30:50.636Z,3.4
2023-01-29T04:50:50.584Z,3.38
2023-01-29T05:10:50.587Z,3.36
2023-01-29T05:30:50.485Z,3.35
2023-01-29T05:50:50.814Z,3.33
2023-01-29T06:10:50.633Z,3.32
2023-01-29T06:50:50.617Z,3.31
2023-01-29T07:10:50.691Z,3.3
2023-01-29T07:30:49.845Z,3.29
2023-01-29T07:50:50.709Z,3.28
2023-01-29T08:10:50.640Z,3.26
2023-01-29T08:30:50.672Z,3.25
2023-01-29T08:50:49.879Z,3.23
2023-01-29T09:10:50.663Z,3.23
2023-01-29T09:30:50.716Z,3.22
2023-01-29T09:50:50.666Z,3.21
2023-01-29T11:10:50.690Z,3.2
2023-01-29T11:30:50.796Z,3.19
2023-01-29T11:50:50.713Z,3.18
2023-01-29T12:10:50.706Z,3.17
2023-01-29T12:30:50.769Z,3.16
2023-01-29T12:50:50.790Z,3.15
2023-01-29T13:10:50.013Z,3.14
2023-01-29T13:50:50.811Z,3.13
2023-01-29T14:10:50.733Z,3.13
2023-01-29T14:30:50.803Z,3.12
2023-01-29T14:50:50.746Z,3.12
2023-01-29T15:10:49.973Z,3.11
2023-01-29T15:30:50.092Z,3.11
2023-01-29T15:50:50.830Z,3.11
2023-01-29T16:10:51.715Z,3.11
2023-01-29T16:30:50.872Z,3.11
2023-01-29T16:50:55.181Z,3.11
2023-01-29T17:10:50.314Z,3.1
2023-01-29T17:31:00.445Z,3.1
2023-01-29T17:50:50.800Z,3.1
2023-01-29T18:30:50.808Z,3.1
2023-01-29T18:50:50.863Z,3.1
2023-01-29T19:10:50.837Z,3.1
2023-01-29T19:30:50.892Z,3.1
2023-01-29T19:50:50.827Z,3.1
2023-01-29T20:10:50.836Z,3.1
2023-01-29T20:30:50.892Z,3.09
2023-01-29T20:50:50.851Z,3.09
2023-01-29T21:10:50.322Z,3.09
2023-01-29T21:30:50.883Z,3.09
2023-01-29T21:50:50.853Z,3.09
2023-01-29T22:10:50.873Z,3.09
2023-01-29T22:30:50.389Z,3.09
2023-01-29T22:50:50.868Z,3.08
2023-01-29T23:10:50.878Z,3.09
2023-01-29T23:30:50.192Z,3.08
2023-01-29T23:50:50.427Z,3.09
